Terminal Aerodrome Forecast
Issued by NWS

Home | Current Version | Previous Version | Text Only | Print | Product List | Glossary On
Versions: 1 2 3 4 5 6 7 8 9 10 11 12 13 14
000
FTUS46 KMTR 212341
TAFSTS
TAF
KSTS 212341Z 2200/2224 30011G16KT P6SM FEW060
     FM220400 30005KT P6SM SKC
     FM220800 VRB03KT P6SM FEW020 FEW050 FEW250
     FM221200 VRB02KT P6SM FEW015 FEW025 SCT035
      TEMPO 2212/2216 FEW012 SCT020 BKN030
     FM221700 35003KT P6SM FEW030
     FM222100 20007KT P6SM SKC=

USA.gov is the U.S. government's official web portal to all federal, state and local government web resources and services.